createdAt,value
2018-09-08T00:00:05.379Z,100597.13
2018-09-08T00:02:36.755Z,100605.03
2018-09-08T00:05:08.655Z,100599.96
2018-09-08T00:07:40.543Z,100605.88
2018-09-08T00:10:12.449Z,100610.38
2018-09-08T00:12:43.780Z,100605.63
2018-09-08T00:15:19.930Z,100603.76
2018-09-08T00:17:55.518Z,100613.12
2018-09-08T00:20:31.895Z,100615.95
2018-09-08T00:23:08.298Z,100621.08
2018-09-08T00:25:45.271Z,100615.30
2018-09-08T00:28:26.307Z,100622.79
2018-09-08T00:30:58.229Z,100623.50
2018-09-08T00:33:29.817Z,100622.66
2018-09-08T00:36:01.512Z,100624.22
2018-09-08T00:38:33.321Z,100626.95
2018-09-08T00:41:04.757Z,100634.45
2018-09-08T00:43:36.323Z,100628.64
2018-09-08T00:46:08.304Z,100642.01
2018-09-08T00:48:40.310Z,100641.17
2018-09-08T00:51:11.808Z,100644.22
2018-09-08T00:53:43.381Z,100640.08
2018-09-08T00:56:14.936Z,100650.93
2018-09-08T00:59:05.914Z,100657.12
2018-09-08T01:01:37.615Z,100656.28
2018-09-08T01:04:08.993Z,100662.80
2018-09-08T01:06:40.674Z,100665.02
2018-09-08T01:09:12.313Z,100662.80
2018-09-08T01:11:43.840Z,100658.36
2018-09-08T01:14:15.228Z,100658.05
2018-09-08T01:16:46.720Z,100660.34
2018-09-08T01:19:17.900Z,100658.76
2018-09-08T01:21:49.255Z,100664.76
2018-09-08T01:24:20.709Z,100666.66
2018-09-08T01:26:52.353Z,100666.44
2018-09-08T01:29:24.644Z,100671.91
2018-09-08T01:31:56.212Z,100672.31
2018-09-08T01:34:27.710Z,100673.37
2018-09-08T01:36:59.241Z,100660.14
2018-09-08T01:39:30.663Z,100674.92
2018-09-08T01:42:02.203Z,100676.81
2018-09-08T01:44:33.700Z,100676.81
2018-09-08T01:47:05.405Z,100678.36
2018-09-08T01:49:37.219Z,100682.69
2018-09-08T01:52:09.436Z,100686.66
2018-09-08T01:54:40.730Z,100675.72
2018-09-08T01:57:12.430Z,100678.84
2018-09-08T01:59:44.236Z,100676.11
2018-09-08T02:02:15.758Z,100682.30
2018-09-08T02:04:46.823Z,100684.50
2018-09-08T02:07:18.012Z,100685.88
2018-09-08T02:09:49.377Z,100684.72
2018-09-08T02:12:21.309Z,100686.45
2018-09-08T02:14:52.891Z,100688.16
2018-09-08T02:17:24.730Z,100686.98
2018-09-08T02:19:56.442Z,100690.38
2018-09-08T02:22:27.827Z,100691.08
2018-09-08T02:26:59.582Z,100697.92
2018-09-08T02:29:30.631Z,100695.89
2018-09-08T02:32:01.643Z,100703.26
2018-09-08T02:34:32.695Z,100700.08
2018-09-08T02:37:03.698Z,100709.25
2018-09-08T02:39:34.735Z,100707.05
2018-09-08T02:42:05.716Z,100716.09
2018-09-08T02:44:36.696Z,100717.46
2018-09-08T02:47:07.836Z,100717.34
2018-09-08T02:50:56.697Z,100714.42
2018-09-08T02:53:25.336Z,100717.33
2018-09-08T02:55:53.887Z,100717.15
2018-09-08T02:58:22.614Z,100718.66
2018-09-08T03:00:51.311Z,100721.39
2018-09-08T03:03:19.835Z,100718.66
2018-09-08T03:05:48.534Z,100720.02
2018-09-08T03:08:17.218Z,100722.75
2018-09-08T03:10:45.771Z,100726.86
2018-09-08T03:13:14.512Z,100723.19
2018-09-08T03:15:43.216Z,100731.74
2018-09-08T03:18:11.806Z,100733.11
2018-09-08T03:20:40.479Z,100734.12
2018-09-08T03:23:09.206Z,100740.58
2018-09-08T03:25:37.759Z,100739.08
2018-09-08T03:28:06.591Z,100745.73
2018-09-08T03:30:35.540Z,100748.15
2018-09-08T03:33:04.213Z,100753.27
2018-09-08T03:35:32.745Z,100757.09
2018-09-08T03:38:01.486Z,100760.50
2018-09-08T03:40:30.183Z,100760.18
2018-09-08T03:42:58.776Z,100763.09
2018-09-08T03:45:27.477Z,100757.09
2018-09-08T03:47:56.225Z,100769.61
2018-09-08T03:50:24.831Z,100765.38
2018-09-08T03:52:53.506Z,100770.18
2018-09-08T03:55:22.208Z,100777.02
2018-09-08T03:57:50.750Z,100772.91
2018-09-08T04:00:19.520Z,100777.33
2018-09-08T04:02:50.633Z,100779.92
2018-09-08T04:05:21.700Z,100785.92
2018-09-08T04:07:52.698Z,100784.38
2018-09-08T04:10:24.304Z,100787.28
2018-09-08T04:12:55.773Z,100788.97
2018-09-08T04:15:27.399Z,100784.02
2018-09-08T04:17:58.867Z,100784.38
2018-09-08T04:20:30.392Z,100780.77
2018-09-08T04:23:01.807Z,100786.63
2018-09-08T04:25:33.317Z,100787.32
2018-09-08T04:28:04.811Z,100796.58
2018-09-08T04:30:36.402Z,100794.55
2018-09-08T04:33:07.813Z,100794.92
2018-09-08T04:35:39.351Z,100797.09
2018-09-08T04:38:10.948Z,100799.83
2018-09-08T04:40:41.574Z,100806.20
2018-09-08T04:43:13.194Z,100798.57
2018-09-08T04:45:44.750Z,100814.20
2018-09-08T04:48:15.959Z,100814.73
2018-09-08T04:50:46.375Z,100808.06
2018-09-08T04:53:17.912Z,100813.25
2018-09-08T04:55:49.652Z,100818.16
2018-09-08T04:58:21.057Z,100821.03
2018-09-08T05:00:52.757Z,100822.78
2018-09-08T05:03:24.373Z,100820.96
2018-09-08T05:05:55.806Z,100818.40
2018-09-08T05:08:27.345Z,100817.21
2018-09-08T05:10:58.866Z,100821.94
2018-09-08T05:13:30.364Z,100828.08
2018-09-08T05:16:01.781Z,100832.38
2018-09-08T05:18:33.395Z,100819.94
2018-09-08T05:21:05.029Z,100830.53
2018-09-08T05:23:36.742Z,100828.14
2018-09-08T05:26:08.392Z,100837.67
2018-09-08T05:28:39.775Z,100837.85
2018-09-08T05:31:10.892Z,100837.71
2018-09-08T05:33:42.669Z,100843.11
2018-09-08T05:36:14.204Z,100844.48
2018-09-08T05:38:45.809Z,100846.16
2018-09-08T05:41:17.414Z,100842.06
2018-09-08T05:43:49.192Z,100851.56
2018-09-08T05:46:20.689Z,100849.56
2018-09-08T05:48:52.216Z,100854.65
2018-09-08T05:51:23.699Z,100863.87
2018-09-08T05:53:55.305Z,100870.53
2018-09-08T05:56:26.890Z,100861.13
2018-09-08T05:58:58.396Z,100867.23
2018-09-08T06:01:29.882Z,100867.84
2018-09-08T06:04:01.432Z,100876.56
2018-09-08T06:06:32.885Z,100877.61
2018-09-08T06:09:05.199Z,100880.66
2018-09-08T06:11:36.725Z,100883.08
2018-09-08T06:14:08.222Z,100883.22
2018-09-08T06:16:39.739Z,100888.70
2018-09-08T06:19:11.413Z,100890.00
2018-09-08T06:21:43.198Z,100893.92
2018-09-08T06:24:14.709Z,100891.50
2018-09-08T06:26:46.366Z,100887.75
2018-09-08T06:29:18.301Z,100891.50
2018-09-08T06:31:50.262Z,100893.36
2018-09-08T06:34:21.658Z,100900.83
2018-09-08T06:36:53.214Z,100896.03
2018-09-08T06:39:24.699Z,100897.08
2018-09-08T06:41:56.315Z,100901.13
2018-09-08T06:44:27.822Z,100903.85
2018-09-08T06:46:59.413Z,100908.48
2018-09-08T06:49:30.902Z,100908.80
2018-09-08T06:52:01.519Z,100914.09
2018-09-08T06:54:33.215Z,100915.11
2018-09-08T06:57:04.756Z,100909.92
2018-09-08T06:59:36.386Z,100901.78
2018-09-08T07:02:07.845Z,100912.48
2018-09-08T07:04:39.325Z,100919.31
2018-09-08T07:07:13.208Z,100927.00
2018-09-08T07:09:45.307Z,100917.95
2018-09-08T07:12:16.752Z,100915.36
2018-09-08T07:14:48.359Z,100924.09
2018-09-08T07:17:19.798Z,100921.84
2018-09-08T07:19:51.287Z,100922.52
2018-09-08T07:22:22.851Z,100917.74
2018-09-08T07:24:54.369Z,100918.41
2018-09-08T07:27:25.842Z,100930.86
2018-09-08T07:29:57.381Z,100922.86
2018-09-08T07:32:29.217Z,100914.80
2018-09-08T07:35:00.653Z,100924.52
2018-09-08T07:37:32.211Z,100926.19
2018-09-08T07:40:03.674Z,100926.52
2018-09-08T07:42:35.205Z,100923.77
2018-09-08T07:45:06.655Z,100927.88
2018-09-08T07:47:38.193Z,100930.09
2018-09-08T07:50:09.724Z,100919.28
2018-09-08T07:52:41.416Z,100916.51
2018-09-08T07:55:12.817Z,100922.51
2018-09-08T07:57:44.314Z,100931.10
2018-09-08T08:00:15.780Z,100937.98
2018-09-08T08:02:47.387Z,100926.11
2018-09-08T08:05:18.886Z,100925.97
2018-09-08T08:07:49.776Z,100928.84
2018-09-08T08:10:21.321Z,100925.59
2018-09-08T08:12:52.927Z,100933.80
2018-09-08T08:15:23.562Z,100939.76
2018-09-08T08:17:55.211Z,100933.76
2018-09-08T08:20:26.818Z,100943.20
2018-09-08T08:22:58.392Z,100939.76
2018-09-08T08:25:29.873Z,100951.41
2018-09-08T08:28:01.426Z,100953.45
2018-09-08T08:30:32.859Z,100952.08
2018-09-08T08:33:04.616Z,100946.25
2018-09-08T08:35:36.210Z,100947.12
2018-09-08T08:38:08.309Z,100941.85
2018-09-08T08:40:39.745Z,100946.77
2018-09-08T08:43:12.322Z,100953.47
2018-09-08T08:45:43.768Z,100954.88
2018-09-08T08:48:15.499Z,100959.72
2018-09-08T08:51:09.798Z,100955.09
2018-09-08T08:53:57.906Z,100951.51
2018-09-08T08:56:28.325Z,100954.95
2018-09-08T08:59:00.363Z,100959.37
2018-09-08T09:01:31.887Z,100954.35
2018-09-08T09:04:02.609Z,100956.46
2018-09-08T09:06:34.201Z,100954.25
2018-09-08T09:09:10.894Z,100962.45
2018-09-08T09:11:42.702Z,100958.84
2018-09-08T09:14:14.760Z,100953.90
2018-09-08T09:16:46.547Z,100946.78
2018-09-08T09:19:50.208Z,100957.62
2018-09-08T09:22:44.345Z,100954.42
2018-09-08T09:25:15.870Z,100944.70
2018-09-08T09:27:49.567Z,100946.39
2018-09-08T09:30:21.722Z,100947.41
2018-09-08T09:32:52.808Z,100951.51
2018-09-08T09:35:24.274Z,100941.54
2018-09-08T09:37:55.986Z,100941.54
2018-09-08T09:40:27.650Z,100946.14
2018-09-08T09:42:59.225Z,100941.16
2018-09-08T09:45:30.766Z,100941.33
2018-09-08T09:48:02.377Z,100943.05
2018-09-08T09:50:33.805Z,100938.06
2018-09-08T09:53:05.371Z,100936.06
2018-09-08T09:55:36.915Z,100942.38
2018-09-08T09:58:08.602Z,100937.75
2018-09-08T10:00:45.312Z,100941.02
2018-09-08T10:03:16.843Z,100934.30
2018-09-08T10:05:48.364Z,100935.53
2018-09-08T10:08:19.844Z,100938.59
2018-09-08T10:10:51.458Z,100938.41
2018-09-08T10:13:22.873Z,100937.05
2018-09-08T10:15:54.667Z,100946.28
2018-09-08T10:18:26.223Z,100931.22
2018-09-08T10:20:58.217Z,100936.84
2018-09-08T10:23:29.758Z,100940.94
2018-09-08T10:26:01.582Z,100933.08
2018-09-08T10:28:33.234Z,100938.02
2018-09-08T10:31:05.215Z,100938.34
2018-09-08T10:33:39.644Z,100929.14
2018-09-08T10:36:11.374Z,100923.88
2018-09-08T10:38:42.838Z,100920.62
2018-09-08T10:41:14.325Z,100922.65
2018-09-08T10:43:45.852Z,100921.64
2018-09-08T10:46:17.665Z,100922.65
2018-09-08T10:48:49.221Z,100925.52
2018-09-08T10:52:36.591Z,100922.97
2018-09-08T10:55:08.234Z,100924.77
2018-09-08T10:57:39.766Z,100921.14
2018-09-08T11:00:12.403Z,100926.02
2018-09-08T11:02:44.214Z,100918.47
2018-09-08T11:05:14.586Z,100923.09
2018-09-08T11:07:45.975Z,100922.05
2018-09-08T11:10:16.608Z,100910.78
2018-09-08T11:12:48.238Z,100918.81
2018-09-08T11:15:19.769Z,100922.18
2018-09-08T11:17:51.409Z,100923.23
2018-09-08T11:20:22.877Z,100921.20
2018-09-08T11:22:54.453Z,100918.16
2018-09-08T11:25:25.839Z,100914.70
2018-09-08T11:27:57.633Z,100915.69
2018-09-08T11:30:29.291Z,100918.95
2018-09-08T11:33:01.743Z,100918.69
2018-09-08T11:35:33.423Z,100917.06
2018-09-08T11:38:06.325Z,100909.33
2018-09-08T11:40:37.758Z,100906.45
2018-09-08T11:43:09.426Z,100906.59
2018-09-08T11:45:40.898Z,100904.20
2018-09-08T11:48:12.528Z,100906.54
2018-09-08T11:50:43.882Z,100902.75
2018-09-08T11:53:15.436Z,100899.13
2018-09-08T11:55:47.371Z,100904.20
2018-09-08T11:58:18.902Z,100909.77
2018-09-08T12:00:50.540Z,100899.34
2018-09-08T12:03:22.220Z,100897.61
2018-09-08T12:05:53.716Z,100901.06
2018-09-08T12:08:25.349Z,100891.89
2018-09-08T12:10:56.861Z,100897.89
2018-09-08T12:13:28.459Z,100897.00
2018-09-08T12:15:59.882Z,100894.97
2018-09-08T12:18:31.427Z,100900.45
2018-09-08T12:21:03.039Z,100902.17
2018-09-08T12:23:34.782Z,100899.69
2018-09-08T12:26:06.628Z,100893.55
2018-09-08T12:28:38.207Z,100888.78
2018-09-08T12:31:09.687Z,100888.16
2018-09-08T12:33:41.221Z,100885.42
2018-09-08T12:36:12.697Z,100885.42
2018-09-08T12:38:44.274Z,100876.73
2018-09-08T12:41:15.703Z,100881.89
2018-09-08T12:43:47.210Z,100879.16
2018-09-08T12:46:18.716Z,100884.63
2018-09-08T12:48:50.447Z,100876.41
2018-09-08T12:51:22.195Z,100873.55
2018-09-08T12:53:53.773Z,100865.85
2018-09-08T12:56:25.317Z,100868.51
2018-09-08T12:58:56.946Z,100875.88
2018-09-08T13:01:27.627Z,100874.38
2018-09-08T13:03:59.191Z,100872.30
2018-09-08T13:06:30.644Z,100871.06
2018-09-08T13:09:02.328Z,100862.01
2018-09-08T13:11:33.803Z,100866.83
2018-09-08T13:14:05.753Z,100868.51
2018-09-08T13:16:37.391Z,100862.06
2018-09-08T13:19:09.217Z,100858.08
2018-09-08T13:21:40.791Z,100856.58
2018-09-08T13:24:12.432Z,100852.20
2018-09-08T13:26:43.821Z,100852.55
2018-09-08T13:29:15.424Z,100846.55
2018-09-08T13:31:47.215Z,100847.57
2018-09-08T13:34:18.730Z,100850.25
2018-09-08T13:36:50.658Z,100849.86
2018-09-08T13:39:22.280Z,100845.75
2018-09-08T13:41:53.793Z,100849.33
2018-09-08T13:44:25.342Z,100841.06
2018-09-08T13:46:56.851Z,100849.02
2018-09-08T13:49:28.512Z,100844.19
2018-09-08T13:52:00.239Z,100848.61
2018-09-08T13:54:31.732Z,100845.69
2018-09-08T13:57:03.422Z,100841.33
2018-09-08T13:59:34.890Z,100838.50
2018-09-08T14:02:06.521Z,100851.22
2018-09-08T14:04:39.410Z,100847.70
2018-09-08T14:07:10.994Z,100840.36
2018-09-08T14:09:42.742Z,100838.64
2018-09-08T14:12:14.510Z,100834.80
2018-09-08T14:14:46.231Z,100849.20
2018-09-08T14:17:17.759Z,100838.24
2018-09-08T14:19:49.316Z,100828.92
2018-09-08T14:22:20.760Z,100836.56
2018-09-08T14:24:52.492Z,100835.50
2018-09-08T14:27:25.003Z,100830.83
2018-09-08T14:29:56.704Z,100828.21
2018-09-08T14:32:28.610Z,100824.63
2018-09-08T14:35:00.229Z,100827.16
2018-09-08T14:37:31.670Z,100827.16
2018-09-08T14:40:30.620Z,100819.47
2018-09-08T14:43:01.783Z,100807.48
2018-09-08T14:45:33.338Z,100812.31
2018-09-08T14:48:05.479Z,100818.81
2018-09-08T14:50:36.833Z,100825.60
2018-09-08T14:53:08.781Z,100819.94
2018-09-08T14:55:40.338Z,100822.99
2018-09-08T14:58:11.869Z,100815.30
2018-09-08T15:00:43.424Z,100827.63
2018-09-08T15:03:14.808Z,100829.31
2018-09-08T15:05:45.910Z,100827.91
2018-09-08T15:08:17.316Z,100820.45
2018-09-08T15:10:48.773Z,100821.94
2018-09-08T15:13:20.341Z,100809.48
2018-09-08T15:15:51.734Z,100812.97
2018-09-08T15:18:23.325Z,100807.48
2018-09-08T15:20:54.861Z,100802.76
2018-09-08T15:23:26.496Z,100797.81
2018-09-08T15:25:58.245Z,100792.42
2018-09-08T15:28:29.816Z,100789.61
2018-09-08T15:31:01.494Z,100777.16
2018-09-08T15:33:32.994Z,100777.85
2018-09-08T15:36:04.564Z,100780.94
2018-09-08T15:38:35.906Z,100785.23
2018-09-08T15:41:07.649Z,100793.27
2018-09-08T15:43:39.305Z,100798.92
2018-09-08T15:46:10.779Z,100797.50
2018-09-08T15:48:42.420Z,100786.07
2018-09-08T15:51:13.823Z,100791.55
2018-09-08T15:53:45.321Z,100793.66
2018-09-08T15:56:16.827Z,100783.73
2018-09-08T15:58:48.314Z,100777.85
2018-09-08T16:01:19.913Z,100774.74
2018-09-08T16:03:51.416Z,100787.00
2018-09-08T16:06:22.989Z,100778.07
2018-09-08T16:08:54.585Z,100776.05
2018-09-08T16:11:26.282Z,100786.29
2018-09-08T16:13:57.700Z,100778.07
2018-09-08T16:16:30.304Z,100777.73
2018-09-08T16:19:01.882Z,100785.31
2018-09-08T16:21:33.519Z,100788.38
2018-09-08T16:24:05.224Z,100792.30
2018-09-08T16:26:36.754Z,100787.53
2018-09-08T16:29:08.210Z,100787.71
2018-09-08T16:31:39.759Z,100784.27
2018-09-08T16:34:10.722Z,100781.70
2018-09-08T16:36:41.911Z,100784.27
2018-09-08T16:39:13.689Z,100785.11
2018-09-08T16:41:45.499Z,100781.70
2018-09-08T16:44:17.281Z,100778.47
2018-09-08T16:46:48.990Z,100781.84
2018-09-08T16:49:20.620Z,100783.30
2018-09-08T16:51:52.238Z,100776.10
2018-09-08T16:54:23.745Z,100779.50
2018-09-08T16:56:55.351Z,100774.11
2018-09-08T16:59:26.764Z,100790.45
2018-09-08T17:01:58.355Z,100791.51
2018-09-08T17:04:29.994Z,100792.87
2018-09-08T17:07:00.640Z,100795.93
2018-09-08T17:09:32.200Z,100793.72
2018-09-08T17:12:03.795Z,100782.64
2018-09-08T17:14:35.396Z,100791.56
2018-09-08T17:17:06.726Z,100787.98
2018-09-08T17:19:38.222Z,100795.67
2018-09-08T17:22:09.811Z,100787.52
2018-09-08T17:24:41.308Z,100788.83
2018-09-08T17:27:12.797Z,100790.56
2018-09-08T17:29:44.376Z,100782.49
2018-09-08T17:32:15.947Z,100791.09
2018-09-08T17:34:46.592Z,100796.75
2018-09-08T17:37:18.193Z,100792.64
2018-09-08T17:39:49.764Z,100790.97
2018-09-08T17:42:21.297Z,100791.49
2018-09-08T17:44:52.780Z,100798.12
2018-09-08T17:47:24.041Z,100796.13
2018-09-08T17:49:55.650Z,100794.28
2018-09-08T17:52:28.476Z,100801.27
2018-09-08T17:55:00.776Z,100793.26
2018-09-08T17:57:33.296Z,100799.23
2018-09-08T18:00:04.877Z,100800.81
2018-09-08T18:02:36.418Z,100808.19
2018-09-08T18:05:07.917Z,100809.56
2018-09-08T18:07:38.575Z,100815.75
2018-09-08T18:10:10.828Z,100817.64
2018-09-08T18:12:42.321Z,100818.93
2018-09-08T18:15:13.846Z,100831.38
2018-09-08T18:17:46.420Z,100840.44
2018-09-08T18:20:17.904Z,100836.02
2018-09-08T18:22:48.651Z,100838.23
2018-09-08T18:25:20.440Z,100834.13
2018-09-08T18:27:51.907Z,100838.41
2018-09-08T18:30:22.581Z,100848.39
2018-09-08T18:32:54.352Z,100841.23
2018-09-08T18:35:25.820Z,100839.33
2018-09-08T18:37:57.380Z,100842.59
2018-09-08T18:40:29.220Z,100847.55
2018-09-08T18:43:07.431Z,100850.46
2018-09-08T18:45:39.234Z,100846.05
2018-09-08T18:48:10.894Z,100855.62
2018-09-08T18:50:42.426Z,100859.06
2018-09-08T18:53:14.673Z,100859.28
2018-09-08T18:55:46.597Z,100864.55
2018-09-08T18:58:18.227Z,100865.28
2018-09-08T19:00:49.781Z,100855.04
2018-09-08T19:03:21.371Z,100862.02
2018-09-08T19:05:52.831Z,100861.05
2018-09-08T19:08:28.216Z,100865.64
2018-09-08T19:10:59.813Z,100868.73
2018-09-08T19:13:31.404Z,100856.84
2018-09-08T19:16:02.884Z,100872.04
2018-09-08T19:18:34.510Z,100871.51
2018-09-08T19:21:06.204Z,100868.45
2018-09-08T19:23:37.673Z,100879.59
2018-09-08T19:26:09.191Z,100877.55
2018-09-08T19:28:40.659Z,100879.80
2018-09-08T19:31:12.206Z,100887.34
2018-09-08T19:33:43.737Z,100880.81
2018-09-08T19:36:14.886Z,100891.77
2018-09-08T19:38:46.615Z,100898.29
2018-09-08T19:41:18.230Z,100894.89
2018-09-08T19:43:49.763Z,100896.97
2018-09-08T19:46:26.362Z,100899.17
2018-09-08T19:48:57.776Z,100905.00
2018-09-08T19:51:29.307Z,100900.55
2018-09-08T19:54:01.311Z,100898.68
2018-09-08T19:59:37.403Z,100901.98
2018-09-08T20:02:09.292Z,100906.80
2018-09-08T20:04:41.318Z,100903.21
2018-09-08T20:07:13.223Z,100905.95
2018-09-08T20:09:44.838Z,100909.00
2018-09-08T20:12:16.649Z,100910.05
2018-09-08T20:14:48.299Z,100910.23
2018-09-08T20:17:20.310Z,100911.08
2018-09-08T20:19:51.865Z,100908.34
2018-09-08T20:22:23.598Z,100913.31
2018-09-08T20:24:55.457Z,100902.23
2018-09-08T20:27:26.822Z,100905.15
2018-09-08T20:29:58.488Z,100903.64
2018-09-08T20:32:29.439Z,100914.55
2018-09-08T20:35:01.285Z,100906.52
2018-09-08T20:37:32.880Z,100903.98
2018-09-08T20:40:04.591Z,100901.25
2018-09-08T20:42:36.192Z,100900.73
2018-09-08T20:45:08.379Z,100897.64
2018-09-08T20:47:40.019Z,100902.27
2018-09-08T20:50:12.252Z,100893.08
2018-09-08T20:52:43.752Z,100901.11
2018-09-08T20:55:15.623Z,100887.75
2018-09-08T20:57:47.220Z,100882.28
2018-09-08T21:00:19.210Z,100884.87
2018-09-08T21:02:50.697Z,100877.20
2018-09-08T21:05:22.444Z,100880.59
2018-09-08T21:07:53.849Z,100878.35
2018-09-08T21:10:25.603Z,100883.12
2018-09-08T21:12:57.240Z,100884.03
2018-09-08T21:15:28.653Z,100886.42
2018-09-08T21:18:00.217Z,100882.66
2018-09-08T21:20:32.193Z,100884.17
2018-09-08T21:23:03.696Z,100889.30
2018-09-08T21:25:35.429Z,100893.92
2018-09-08T21:28:06.832Z,100893.78
2018-09-08T21:30:38.881Z,100899.08
2018-09-08T21:33:10.426Z,100909.53
2018-09-08T21:35:42.378Z,100912.27
2018-09-08T21:38:14.305Z,100911.95
2018-09-08T21:40:46.307Z,100907.53
2018-09-08T21:43:18.507Z,100912.66
2018-09-08T21:45:50.563Z,100911.98
2018-09-08T21:48:21.896Z,100918.52
2018-09-08T21:50:53.523Z,100913.56
2018-09-08T21:53:25.210Z,100907.88
2018-09-08T21:55:57.227Z,100906.91
2018-09-08T21:58:28.722Z,100899.68
2018-09-08T22:01:07.465Z,100893.23
2018-09-08T22:03:38.841Z,100890.53
2018-09-08T22:06:10.651Z,100878.88
2018-09-08T22:08:42.232Z,100878.88
2018-09-08T22:11:14.203Z,100884.35
2018-09-08T22:13:45.688Z,100887.58
2018-09-08T22:16:17.565Z,100881.80
2018-09-08T22:18:50.426Z,100876.19
2018-09-08T22:21:22.204Z,100885.76
2018-09-08T22:23:53.716Z,100886.14
2018-09-08T22:26:25.418Z,100887.66
2018-09-08T22:28:56.848Z,100891.23
2018-09-08T22:31:29.319Z,100891.41
2018-09-08T22:34:00.873Z,100889.20
2018-09-08T22:36:32.666Z,100894.87
2018-09-08T22:40:07.837Z,100889.75
2018-09-08T22:42:39.392Z,100889.89
2018-09-08T22:45:10.875Z,100889.72
2018-09-08T22:47:42.348Z,100888.73
2018-09-08T22:50:13.745Z,100888.21
2018-09-08T22:52:45.422Z,100890.56
2018-09-08T22:55:16.822Z,100896.41
2018-09-08T22:57:48.392Z,100900.52
2018-09-08T23:00:19.896Z,100911.77
2018-09-08T23:02:51.566Z,100917.45
2018-09-08T23:05:23.216Z,100921.87
2018-09-08T23:07:54.751Z,100927.41
2018-09-08T23:10:25.803Z,100908.41
2018-09-08T23:12:57.020Z,100914.75
2018-09-08T23:15:29.216Z,100905.39
2018-09-08T23:18:00.729Z,100906.37
2018-09-08T23:20:32.406Z,100910.12
2018-09-08T23:23:03.839Z,100911.87
2018-09-08T23:25:35.233Z,100908.13
2018-09-08T23:28:07.896Z,100903.14
2018-09-08T23:30:39.536Z,100904.52
2018-09-08T23:33:11.029Z,100906.55
2018-09-08T23:35:41.811Z,100911.00
2018-09-08T23:38:13.558Z,100908.99
2018-09-08T23:40:45.214Z,100909.48
2018-09-08T23:43:17.311Z,100913.23
2018-09-08T23:45:48.777Z,100905.73
2018-09-08T23:48:20.618Z,100915.98
2018-09-08T23:50:51.993Z,100913.59
2018-09-08T23:53:23.832Z,100908.44
2018-09-08T23:55:55.406Z,100904.48
2018-09-08T23:58:27.457Z,100900.23
